Vigorous — V7ZQ2 — position and weather

sailwx.info

Track history (hours):
 
Tides and Currents Weather Stations Pressure Air Temp Water Temp Dewpoint Dewpoint Depression Visibility Wind Speed Wind Dir Waves Ship Positions

Vigorous

Last reported at 2018-Jul-15 19:13 UTC. Time now 2018-Jul-16 10:03 UTC.
Position N 36°45' E 000°41'.

Length 180 m; draft 9.4 m.

Type: Cargo ship. MMSI: 538004890.

Date/timePositionNaut miles runAvg speedWind from/ knotsBaromVisibWave heightAir tempDewpointWater temp
2018-Jul-15 19:13N 36°45' E 000°41'9512.2
2018-Jul-15 11:23N 36°59' E 002°39'713.5
2018-Jul-15 10:51N 37°00' E 002°48'5413.2
2018-Jul-15 06:47N 37°08' E 003°54'513.1
2018-Jul-15 06:26N 37°09' E 003°60'612.8
2018-Jul-15 05:57N 37°09' E 004°08'812.5
2018-Jul-15 05:18N 37°11' E 004°18'512.4
2018-Jul-15 04:55N 37°11' E 004°24'612.4
2018-Jul-15 04:28N 37°12' E 004°31'612.5
2018-Jul-15 04:00N 37°13' E 004°38'812.7
2018-Jul-15 03:23N 37°14' E 004°47'512.6
2018-Jul-15 03:00N 37°15' E 004°53'612.7
2018-Jul-15 02:31N 37°16' E 005°01'713.0
2018-Jul-15 02:00N 37°17' E 005°09'3013.4
2018-Jul-14 23:44N 37°21' E 005°47'413.2
2018-Jul-14 23:25N 37°22' E 005°52'512.9
2018-Jul-14 23:01N 37°22' E 005°59'712.7
2018-Jul-14 22:30N 37°23' E 006°07'612.5
2018-Jul-14 22:00N 37°24' E 006°15'18412.1
2018-Jul-14 06:48N 37°39' E 010°06'413.0
2018-Jul-14 06:30N 37°39' E 010°11'11912.9
2018-Jul-13 21:18N 36°58' E 012°32'413.3
2018-Jul-13 21:00N 36°57' E 012°37'613.1
2018-Jul-13 20:30N 36°55' E 012°44'613.0
2018-Jul-13 20:01N 36°54' E 012°52'712.9
2018-Jul-13 19:30N 36°52' E 012°60'713.5
2018-Jul-13 19:01N 36°50' E 013°08'713.3
2018-Jul-13 18:30N 36°48' E 013°16'713.3
2018-Jul-13 18:01N 36°46' E 013°24'713.0
2018-Jul-13 17:30N 36°44' E 013°32'713.0
2018-Jul-13 17:00N 36°42' E 013°39'612.9
2018-Jul-13 16:30N 36°40' E 013°47'612.8
2018-Jul-13 16:00N 36°38' E 013°55'612.6
2018-Jul-13 15:30N 36°37' E 014°02'612.4
2018-Jul-13 15:00N 36°35' E 014°10'1212.3
2018-Jul-13 14:00N 36°31' E 014°24'612.3
2018-Jul-13 13:30N 36°29' E 014°32'612.0
2018-Jul-13 12:58N 36°28' E 014°39'612.0
2018-Jul-13 12:30N 36°28' E 014°46'712.0
2018-Jul-13 11:56N 36°27' E 014°55'512.4
2018-Jul-13 11:30N 36°27' E 015°01'812.9
2018-Jul-13 10:52N 36°27' E 015°11'41510.7
2018-Jul-11 19:57N 36°20' E 023°47'612.7
2018-Jul-11 19:27N 36°19' E 023°54'712.6
2018-Jul-11 18:54N 36°18' E 024°03'512.5
2018-Jul-11 18:30N 36°17' E 024°09'  
Track history (hours):
 
Tides and Currents Weather Stations Pressure Air Temp Water Temp Dewpoint Dewpoint Depression Visibility Wind Speed Wind Dir Waves Ship Positions

Vigorous

Last reported at 2018-Jul-15 19:13 UTC. Time now 2018-Jul-16 10:03 UTC.
Position N 36°45' E 000°41'.

Length 180 m; draft 9.4 m.

Type: Cargo ship. MMSI: 538004890.

Date/timePositionNaut miles runAvg speedWind from/ knotsBaromVisibWave heightAir tempDewpointWater temp
2018-Jul-15 19:13N 36°45' E 000°41'9512.2
2018-Jul-15 11:23N 36°59' E 002°39'713.5
2018-Jul-15 10:51N 37°00' E 002°48'5413.2
2018-Jul-15 06:47N 37°08' E 003°54'513.1
2018-Jul-15 06:26N 37°09' E 003°60'612.8
2018-Jul-15 05:57N 37°09' E 004°08'812.5
2018-Jul-15 05:18N 37°11' E 004°18'512.4
2018-Jul-15 04:55N 37°11' E 004°24'612.4
2018-Jul-15 04:28N 37°12' E 004°31'612.5
2018-Jul-15 04:00N 37°13' E 004°38'812.7
2018-Jul-15 03:23N 37°14' E 004°47'512.6
2018-Jul-15 03:00N 37°15' E 004°53'612.7
2018-Jul-15 02:31N 37°16' E 005°01'713.0
2018-Jul-15 02:00N 37°17' E 005°09'3013.4
2018-Jul-14 23:44N 37°21' E 005°47'413.2
2018-Jul-14 23:25N 37°22' E 005°52'512.9
2018-Jul-14 23:01N 37°22' E 005°59'712.7
2018-Jul-14 22:30N 37°23' E 006°07'612.5
2018-Jul-14 22:00N 37°24' E 006°15'18412.1
2018-Jul-14 06:48N 37°39' E 010°06'413.0
2018-Jul-14 06:30N 37°39' E 010°11'11912.9
2018-Jul-13 21:18N 36°58' E 012°32'413.3
2018-Jul-13 21:00N 36°57' E 012°37'613.1
2018-Jul-13 20:30N 36°55' E 012°44'613.0
2018-Jul-13 20:01N 36°54' E 012°52'712.9
2018-Jul-13 19:30N 36°52' E 012°60'713.5
2018-Jul-13 19:01N 36°50' E 013°08'713.3
2018-Jul-13 18:30N 36°48' E 013°16'713.3
2018-Jul-13 18:01N 36°46' E 013°24'713.0
2018-Jul-13 17:30N 36°44' E 013°32'713.0
2018-Jul-13 17:00N 36°42' E 013°39'612.9
2018-Jul-13 16:30N 36°40' E 013°47'612.8
2018-Jul-13 16:00N 36°38' E 013°55'612.6
2018-Jul-13 15:30N 36°37' E 014°02'612.4
2018-Jul-13 15:00N 36°35' E 014°10'1212.3
2018-Jul-13 14:00N 36°31' E 014°24'612.3
2018-Jul-13 13:30N 36°29' E 014°32'612.0
2018-Jul-13 12:58N 36°28' E 014°39'612.0
2018-Jul-13 12:30N 36°28' E 014°46'712.0
2018-Jul-13 11:56N 36°27' E 014°55'512.4
2018-Jul-13 11:30N 36°27' E 015°01'812.9
2018-Jul-13 10:52N 36°27' E 015°11'41510.7
2018-Jul-11 19:57N 36°20' E 023°47'612.7
2018-Jul-11 19:27N 36°19' E 023°54'712.6
2018-Jul-11 18:54N 36°18' E 024°03'512.5
2018-Jul-11 18:30N 36°17' E 024°09'  

Dump ship's entire track history